Carlsbad, CA

7:10 PM PDT on September 14, 2014 (GMT -0700)
McClellan-Palomar | Change Station
CLOSE
Current Station
Airport
Location: Carlsbad,
Elevation: 328 ft
Nearby Weather Stations

Elev 328 ft 33.13 °N, 117.28 °W | Updated 17 minutes ago

Clear
Clear
79 °F
Feels Like 79 °F
N
4
Wind Variable Wind from SW

Today
High -- | Low -- °F
--% Chance of Precip.
Yesterday
High -- | Low -- °F
Precip. -- in
6:32 AM 6:56 PM
Waning Gibbous, 60% visible
Pressure 29.70 in
Visibility 10.0 miles
Clouds Clear
Dew Point 65 °F
Humidity 62%
Rainfall 0.00 in
Snow Depth 0 in , 0 in , 0 in
UV 0 out of 12
Pollen 5.80 out of 12
Ozone Good
PM2.5 Moderate
Flu Activity Not available.
METAR KCRQ 150153Z AUTO 23003KT 10SM CLR 26/18 A2971 RMK AO2 SLP057 T02610183 $

More Conditions Fewer Conditions

Pressure 29.70 in
Visibility 10.0 miles
Clouds Clear
Dew Point 65 °F
Humidity 62%
Rainfall 0.00 in
Snow Depth 0 in , 0 in , 0 in
UV 0 out of 12
Pollen 5.80 out of 12
Ozone Good
PM2.5 Moderate
Flu Activity Not available.
METAR KCRQ 150153Z AUTO 23003KT 10SM CLR 26/18 A2971 RMK AO2 SLP057 T02610183 $

More Conditions Fewer Conditions

10-Day Weather Forecast

Almanac

Astronomy

Sep. 14, 2014 Rise Set
Actual Time 6:32 AM PDT 6:56 PM PDT
Civil Twilight 6:07 AM PDT 7:21 PM PDT
Nautical Twilight 5:38 AM PDT 7:50 PM PDT
Astronomical Twilight 5:08 AM PDT 8:19 PM PDT
Moon 11:10 PM PDT (9/14) 12:24 PM PDT (9/14)
Length of Visible Light 13h 14m
Length of Day
12h 24m
Tomorrow will be 2m 1s shorter.
Waning Gibbous, 60% of the Moon is Illuminated
Today
Waning Gibbous
Sep 15
Last Quarter
Sep 24
New
Oct 1
First Quarter
Oct 8
Full

Today's Extremes

State Highs State Lows

Community

WunderPhotos

Upload Photos

1,753,371 photos uploaded!

Nearby

Air Quality

  Air Quality AQ Index Pollutant
Yesterday Good
PM2.5
Yesterday Good
OZONE
Current Moderate
PM2.5
Current Good
OZONE
Sunday Moderate
PM2.5
Sunday Moderate
OZONE
Monday Moderate
PM2.5
Monday Good
OZONE

Snow Depth

Station Depth Elevation
CSS Lab 0 in 6900 ft
Monitor Pass 0 in 8350 ft
Leavitt Meadows 0 in 7200 ft
Adin Mountain 0 in 6200 ft
Spratt Creek 0 in 6200 ft

Earthquake Activity

City Distance Mag. Time & Date
San Jacinto, California 49 miles 3.1 3:16 PM PDT
2014-09-14
Minimum magnitude displayed is 2.5.

Coastal Water Temperatures

Place Temperature
La Jolla, CA 68.0 °F
San Diego, CA 78.1 °F

Nearby Weather Stations